createdAt,value
2022-10-06T03:59:15.235Z,0.00
2022-10-06T04:00:13.575Z,0.00
2022-10-06T04:01:13.607Z,0.00
2022-10-06T04:02:13.658Z,0.00
2022-10-06T04:03:13.552Z,0.00
2022-10-06T04:04:15.184Z,0.00
2022-10-06T04:05:13.524Z,0.00
2022-10-06T04:06:13.515Z,0.00
2022-10-06T04:07:13.508Z,0.00
2022-10-06T04:08:15.161Z,0.00
2022-10-06T04:09:16.030Z,0.00
2022-10-06T04:10:15.166Z,0.00
2022-10-06T04:11:15.161Z,0.00
2022-10-06T04:12:15.172Z,0.00
2022-10-06T04:13:15.191Z,0.00
2022-10-06T04:14:14.677Z,0.00
2022-10-06T04:15:15.175Z,0.00
2022-10-06T04:16:15.220Z,0.00
2022-10-06T04:17:15.174Z,0.00
2022-10-06T04:18:15.682Z,0.00
2022-10-06T04:19:15.168Z,0.00
2022-10-06T04:20:15.177Z,0.00
2022-10-06T04:21:15.172Z,0.00
2022-10-06T04:22:15.167Z,0.00
2022-10-06T04:23:14.445Z,0.00
2022-10-06T04:24:13.437Z,0.00
2022-10-06T04:25:15.199Z,0.00
2022-10-06T04:26:13.435Z,0.00
2022-10-06T04:27:13.422Z,0.00
2022-10-06T04:28:15.242Z,0.00
2022-10-06T04:29:14.696Z,0.00
2022-10-06T04:30:15.196Z,0.00
2022-10-06T04:31:13.497Z,0.00
2022-10-06T04:32:13.408Z,0.00
2022-10-06T04:33:15.203Z,0.00
2022-10-06T04:34:13.523Z,0.00
2022-10-06T04:35:15.195Z,0.00
2022-10-06T04:36:13.400Z,0.00
2022-10-06T04:37:13.389Z,0.00
2022-10-06T04:38:13.392Z,0.00
2022-10-06T04:39:13.390Z,0.00
2022-10-06T04:40:14.698Z,0.00
2022-10-06T04:41:13.382Z,0.00
2022-10-06T04:42:15.238Z,0.00
2022-10-06T04:43:14.374Z,0.00
2022-10-06T04:44:14.367Z,0.00
2022-10-06T04:45:13.363Z,0.00
2022-10-06T04:46:38.018Z,0.00
2022-10-06T04:47:15.206Z,0.00
2022-10-06T04:48:15.702Z,0.00
2022-10-06T04:49:19.389Z,0.00
2022-10-06T04:50:15.194Z,0.00
2022-10-06T04:51:14.721Z,0.00
2022-10-06T04:52:15.197Z,0.00
2022-10-06T04:53:15.207Z,0.00
2022-10-06T04:54:15.218Z,0.00
2022-10-06T04:55:15.200Z,0.00
2022-10-06T04:56:15.212Z,0.00
2022-10-06T04:57:15.202Z,0.00
2022-10-06T04:58:15.204Z,0.00
2022-10-06T04:59:14.328Z,0.00
2022-10-06T05:00:15.232Z,0.00
2022-10-06T05:01:15.298Z,0.00
2022-10-06T05:02:13.327Z,0.00
2022-10-06T05:03:13.316Z,0.00
2022-10-06T05:04:14.304Z,0.00
2022-10-06T05:05:13.301Z,0.00
2022-10-06T05:06:15.235Z,0.00
2022-10-06T05:07:13.294Z,0.00
2022-10-06T05:08:13.289Z,0.00
2022-10-06T05:09:13.294Z,0.00
2022-10-06T05:10:15.210Z,0.00
2022-10-06T05:11:18.199Z,0.00
2022-10-06T05:12:15.216Z,0.00
2022-10-06T05:13:15.221Z,0.00
2022-10-06T05:14:15.225Z,0.00
2022-10-06T05:15:15.213Z,0.00
2022-10-06T05:16:15.252Z,0.00
2022-10-06T05:17:15.226Z,0.00
2022-10-06T05:18:15.224Z,0.00
2022-10-06T05:19:15.231Z,0.00
2022-10-06T05:20:15.216Z,0.00
2022-10-06T05:21:15.242Z,0.00
2022-10-06T05:22:15.218Z,0.00
2022-10-06T05:23:15.218Z,0.00
2022-10-06T05:24:15.223Z,0.00
2022-10-06T05:25:15.222Z,0.00
2022-10-06T05:26:14.752Z,0.00
2022-10-06T05:27:14.728Z,0.00
2022-10-06T05:28:14.764Z,0.00
2022-10-06T05:29:14.741Z,0.00
2022-10-06T05:30:14.732Z,0.00
2022-10-06T05:31:14.818Z,0.00
2022-10-06T05:32:14.740Z,0.00
2022-10-06T05:33:13.216Z,0.00
2022-10-06T05:34:14.277Z,0.00
2022-10-06T05:35:13.200Z,0.00
2022-10-06T05:36:13.197Z,0.00
2022-10-06T05:37:13.191Z,0.00
2022-10-06T05:38:13.189Z,0.00
2022-10-06T05:39:14.746Z,0.00
2022-10-06T05:40:14.249Z,0.00
2022-10-06T05:41:14.741Z,0.00
2022-10-06T05:42:14.810Z,0.00
2022-10-06T05:43:14.176Z,0.00
2022-10-06T05:44:14.752Z,0.00
2022-10-06T05:45:14.789Z,5.63
2022-10-06T05:46:15.809Z,5.63
2022-10-06T05:47:14.980Z,5.63
2022-10-06T05:49:15.747Z,5.63
2022-10-06T05:50:27.933Z,5.63
2022-10-06T05:51:13.352Z,5.63
2022-10-06T05:52:13.148Z,5.63
2022-10-06T05:53:17.853Z,5.63
2022-10-06T05:54:14.788Z,5.63
2022-10-06T05:55:14.742Z,5.63
2022-10-06T05:56:13.761Z,5.63
2022-10-06T05:57:18.855Z,5.63
2022-10-06T05:58:21.159Z,5.63
2022-10-06T05:59:13.121Z,11.25
2022-10-06T06:00:22.333Z,11.25
2022-10-06T06:01:13.755Z,11.25
2022-10-06T06:02:15.497Z,11.25
2022-10-06T06:03:15.474Z,11.25
2022-10-06T06:04:14.303Z,11.25
2022-10-06T06:05:14.755Z,11.25
2022-10-06T06:06:13.172Z,11.25
2022-10-06T06:07:13.119Z,11.25
2022-10-06T06:08:13.112Z,11.25
2022-10-06T06:09:14.773Z,11.25
2022-10-06T06:10:13.088Z,16.88
2022-10-06T06:11:13.090Z,16.88
2022-10-06T06:12:13.098Z,16.88
2022-10-06T06:13:14.782Z,16.88
2022-10-06T06:14:13.077Z,16.88
2022-10-06T06:15:14.763Z,16.88
2022-10-06T06:16:13.100Z,16.88
2022-10-06T06:17:14.794Z,16.88
2022-10-06T06:18:14.779Z,16.88
2022-10-06T06:19:13.063Z,16.88
2022-10-06T06:20:14.783Z,22.50
2022-10-06T06:21:13.067Z,22.50
2022-10-06T06:22:14.856Z,28.13
2022-10-06T06:23:14.782Z,28.13
2022-10-06T06:24:14.797Z,28.13
2022-10-06T06:25:14.790Z,28.13
2022-10-06T06:26:14.789Z,28.13
2022-10-06T06:27:14.771Z,22.50
2022-10-06T06:28:14.957Z,22.50
2022-10-06T06:29:14.026Z,22.50
2022-10-06T06:30:14.774Z,28.13
2022-10-06T06:31:19.170Z,33.75
2022-10-06T06:32:14.819Z,45.00
2022-10-06T06:33:14.860Z,45.00
2022-10-06T06:34:14.819Z,50.63
2022-10-06T06:35:14.782Z,50.63
2022-10-06T06:36:14.780Z,50.63
2022-10-06T06:37:15.500Z,56.25
2022-10-06T06:38:14.838Z,56.25
2022-10-06T06:39:14.790Z,56.25
2022-10-06T06:40:13.098Z,56.25
2022-10-06T06:41:14.808Z,56.25
2022-10-06T06:42:12.994Z,56.25
2022-10-06T06:43:12.985Z,61.88
2022-10-06T06:44:14.800Z,61.88
2022-10-06T06:45:14.792Z,61.88
2022-10-06T06:46:14.973Z,61.88
2022-10-06T06:47:14.796Z,61.88
2022-10-06T06:48:14.797Z,61.88
2022-10-06T06:49:14.815Z,61.88
2022-10-06T06:50:14.845Z,67.50
2022-10-06T06:51:14.791Z,67.50
2022-10-06T06:52:14.916Z,67.50
2022-10-06T06:53:16.189Z,67.50
2022-10-06T06:54:14.817Z,67.50
2022-10-06T06:55:14.834Z,67.50
2022-10-06T06:56:14.816Z,67.50
2022-10-06T06:57:14.797Z,67.50
2022-10-06T06:58:14.823Z,67.50
2022-10-06T06:59:14.855Z,67.50
2022-10-06T07:00:14.817Z,67.50
2022-10-06T07:01:28.876Z,67.50
2022-10-06T07:02:14.909Z,61.88
2022-10-06T07:03:14.847Z,56.25
2022-10-06T07:04:14.803Z,56.25
2022-10-06T07:05:14.829Z,61.88
2022-10-06T07:06:15.442Z,61.88
2022-10-06T07:07:15.148Z,67.50
2022-10-06T07:08:15.215Z,73.13
2022-10-06T07:09:15.889Z,73.13
2022-10-06T07:10:14.877Z,73.13
2022-10-06T07:11:12.915Z,78.75
2022-10-06T07:12:13.078Z,78.75
2022-10-06T07:13:13.348Z,78.75
2022-10-06T07:14:15.824Z,78.75
2022-10-06T07:15:12.917Z,78.75
2022-10-06T07:16:12.956Z,78.75
2022-10-06T07:17:14.295Z,78.75
2022-10-06T07:18:16.839Z,78.75
2022-10-06T07:19:12.902Z,78.75
2022-10-06T07:20:14.840Z,78.75
2022-10-06T07:21:12.896Z,78.75
2022-10-06T07:22:13.834Z,78.75
2022-10-06T07:23:14.909Z,78.75
2022-10-06T07:24:13.188Z,78.75
2022-10-06T07:25:14.938Z,78.75
2022-10-06T07:26:12.930Z,78.75
2022-10-06T07:27:13.875Z,78.75
2022-10-06T07:28:15.901Z,78.75
2022-10-06T07:29:14.847Z,84.38
2022-10-06T07:30:12.987Z,84.38
2022-10-06T07:31:14.857Z,84.38
2022-10-06T07:32:13.115Z,84.38
2022-10-06T07:33:14.856Z,84.38
2022-10-06T07:34:14.905Z,84.38
2022-10-06T07:35:12.953Z,84.38
2022-10-06T07:36:28.422Z,84.38
2022-10-06T07:37:12.861Z,84.38
2022-10-06T07:38:14.775Z,84.38
2022-10-06T07:39:16.013Z,84.38
2022-10-06T07:40:15.021Z,84.38
2022-10-06T07:41:20.631Z,84.38
2022-10-06T07:42:14.878Z,84.38
2022-10-06T07:43:12.948Z,84.38
2022-10-06T07:44:12.882Z,84.38
2022-10-06T07:45:14.356Z,84.38
2022-10-06T07:46:13.030Z,84.38
2022-10-06T07:47:13.372Z,84.38
2022-10-06T07:48:15.882Z,84.38
2022-10-06T07:49:12.844Z,84.38
2022-10-06T07:50:12.863Z,84.38
2022-10-06T07:51:12.838Z,84.38
2022-10-06T07:52:14.353Z,84.38
2022-10-06T07:53:15.248Z,84.38
2022-10-06T07:54:14.373Z,84.38
2022-10-06T07:55:12.883Z,84.38
2022-10-06T07:56:15.595Z,84.38
2022-10-06T07:57:12.858Z,84.38
2022-10-06T07:58:15.452Z,84.38
2022-10-06T07:59:14.499Z,84.38
2022-10-06T08:00:12.843Z,84.38
2022-10-06T08:01:14.388Z,84.38
2022-10-06T08:02:13.994Z,84.38
2022-10-06T08:03:14.482Z,84.38
2022-10-06T08:04:14.374Z,84.38
2022-10-06T08:05:14.362Z,84.38
2022-10-06T08:06:14.409Z,84.38
2022-10-06T08:07:14.399Z,84.38
2022-10-06T08:08:14.363Z,84.38
2022-10-06T08:09:14.882Z,84.38
2022-10-06T08:10:14.378Z,84.38
2022-10-06T08:11:12.879Z,84.38
2022-10-06T08:12:12.818Z,84.38
2022-10-06T08:13:12.822Z,84.38
2022-10-06T08:14:12.821Z,84.38
2022-10-06T08:15:12.810Z,84.38
2022-10-06T08:16:14.439Z,84.38
2022-10-06T08:17:14.378Z,84.38
2022-10-06T08:18:33.696Z,84.38
2022-10-06T08:19:14.388Z,84.38
2022-10-06T08:20:14.372Z,84.38
2022-10-06T08:21:14.372Z,84.38
2022-10-06T08:22:14.451Z,84.38
2022-10-06T08:23:14.426Z,84.38
2022-10-06T08:24:14.431Z,84.38
2022-10-06T08:25:14.929Z,84.38
2022-10-06T08:26:14.378Z,84.38
2022-10-06T08:27:14.377Z,84.38
2022-10-06T08:28:14.473Z,84.38
2022-10-06T08:29:14.408Z,84.38
2022-10-06T08:30:14.382Z,84.38
2022-10-06T08:31:14.444Z,84.38
2022-10-06T08:32:13.953Z,84.38
2022-10-06T08:33:14.414Z,84.38
2022-10-06T08:34:12.801Z,84.38
2022-10-06T08:35:12.801Z,84.38
2022-10-06T08:36:14.407Z,84.38
2022-10-06T08:37:20.185Z,84.38
2022-10-06T08:38:12.794Z,84.38
2022-10-06T08:39:14.398Z,84.38
2022-10-06T08:40:12.859Z,84.38
2022-10-06T08:41:12.801Z,84.38
2022-10-06T08:42:12.796Z,84.38
2022-10-06T08:43:12.790Z,84.38
2022-10-06T08:44:15.421Z,84.38
2022-10-06T08:45:13.193Z,90.00
2022-10-06T08:46:12.831Z,90.00
2022-10-06T08:47:12.789Z,90.00
2022-10-06T08:48:14.499Z,90.00
2022-10-06T08:49:13.590Z,90.00
2022-10-06T08:50:14.477Z,90.00
2022-10-06T08:51:14.399Z,90.00
2022-10-06T08:52:14.415Z,90.00
2022-10-06T08:53:15.545Z,90.00
2022-10-06T08:54:17.424Z,90.00
2022-10-06T08:55:14.479Z,90.00
2022-10-06T08:56:13.860Z,90.00
2022-10-06T08:57:14.478Z,90.00
2022-10-06T08:58:12.795Z,90.00
2022-10-06T08:59:14.708Z,90.00
2022-10-06T09:00:18.143Z,90.00
2022-10-06T09:01:12.882Z,90.00
2022-10-06T09:02:14.488Z,90.00
2022-10-06T09:03:12.827Z,90.00
2022-10-06T09:04:12.787Z,90.00
2022-10-06T09:05:12.780Z,95.63
2022-10-06T09:06:12.795Z,90.00
2022-10-06T09:07:14.425Z,95.63
2022-10-06T09:08:12.862Z,45.00
2022-10-06T09:09:12.875Z,95.63
2022-10-06T09:10:12.784Z,95.63
2022-10-06T09:11:14.449Z,101.25
2022-10-06T09:12:12.883Z,101.25
2022-10-06T09:13:18.402Z,95.63
2022-10-06T09:14:12.863Z,101.25
2022-10-06T09:15:12.790Z,101.25
2022-10-06T09:16:12.840Z,106.88
2022-10-06T09:17:14.460Z,73.13
2022-10-06T09:18:12.778Z,112.50
2022-10-06T09:19:12.797Z,118.13
2022-10-06T09:20:12.804Z,112.50
2022-10-06T09:21:12.784Z,106.88
2022-10-06T09:22:14.470Z,106.88
2022-10-06T09:23:14.474Z,106.88
2022-10-06T09:24:12.781Z,101.25
2022-10-06T09:25:12.899Z,112.50
2022-10-06T09:26:14.033Z,118.13
2022-10-06T09:27:15.491Z,106.88
2022-10-06T09:28:13.754Z,106.88
2022-10-06T09:29:14.974Z,112.50
2022-10-06T09:30:12.788Z,112.50
2022-10-06T09:31:12.819Z,106.88
2022-10-06T09:32:17.014Z,90.00
2022-10-06T09:33:13.491Z,118.13
2022-10-06T09:34:13.073Z,112.50
2022-10-06T09:35:15.627Z,112.50
2022-10-06T09:36:12.959Z,73.13
2022-10-06T09:37:20.469Z,73.13
2022-10-06T09:38:12.862Z,112.50
2022-10-06T09:39:12.868Z,106.88
2022-10-06T09:40:12.841Z,112.50
2022-10-06T09:41:12.804Z,112.50
2022-10-06T09:42:12.864Z,118.13
2022-10-06T09:43:19.896Z,123.75
2022-10-06T09:44:19.707Z,118.13
2022-10-06T09:45:13.998Z,118.13
2022-10-06T09:46:15.573Z,118.13
2022-10-06T09:47:15.037Z,129.38
2022-10-06T09:48:13.909Z,129.38
2022-10-06T09:50:14.051Z,78.75
2022-10-06T09:51:12.833Z,135.00
2022-10-06T09:52:14.481Z,78.75
2022-10-06T09:53:14.894Z,135.00
2022-10-06T09:54:14.614Z,118.13
2022-10-06T09:55:14.478Z,135.00
2022-10-06T09:56:14.474Z,78.75
2022-10-06T09:57:14.496Z,78.75
2022-10-06T09:58:21.463Z,90.00
2022-10-06T09:59:12.833Z,84.38
2022-10-06T10:00:14.471Z,140.63
2022-10-06T10:01:14.523Z,140.63
2022-10-06T10:02:14.493Z,84.38
2022-10-06T10:13:21.062Z,140.63
2022-10-06T10:14:19.525Z,140.63
2022-10-06T10:15:19.120Z,146.25
2022-10-06T10:16:20.180Z,146.25
2022-10-06T10:17:20.036Z,146.25
2022-10-06T10:18:20.038Z,151.88
2022-10-06T10:19:30.675Z,146.25
2022-10-06T10:20:19.037Z,146.25
2022-10-06T10:21:20.625Z,151.88
2022-10-06T10:22:20.018Z,95.63
2022-10-06T10:23:21.625Z,180.00
2022-10-06T10:24:20.634Z,180.00
2022-10-06T10:25:20.036Z,168.75
2022-10-06T10:26:20.634Z,95.63
2022-10-06T10:27:21.077Z,146.25
2022-10-06T10:28:20.685Z,163.13
2022-10-06T10:29:21.463Z,84.38
2022-10-06T10:30:19.082Z,84.38
2022-10-06T10:31:19.857Z,168.75
2022-10-06T10:32:27.643Z,95.63
2022-10-06T10:33:23.788Z,90.00
2022-10-06T10:34:26.153Z,163.13
2022-10-06T10:35:47.274Z,78.75
2022-10-06T10:36:19.777Z,90.00
2022-10-06T10:37:54.719Z,84.38
2022-10-06T10:38:19.776Z,174.38
2022-10-06T10:39:20.174Z,84.38
2022-10-06T10:40:19.050Z,90.00
2022-10-06T10:41:20.666Z,95.63
2022-10-06T10:42:19.112Z,90.00
2022-10-06T10:43:21.677Z,84.38
2022-10-06T10:44:25.203Z,78.75
2022-10-06T10:45:19.136Z,95.63
2022-10-06T10:46:19.496Z,78.75
2022-10-06T10:47:20.710Z,78.75
2022-10-06T10:48:19.107Z,95.63
2022-10-06T10:49:19.349Z,95.63
2022-10-06T10:50:25.102Z,112.50
2022-10-06T10:51:19.665Z,112.50
2022-10-06T10:52:21.355Z,219.38
2022-10-06T10:54:20.436Z,202.50
2022-10-06T10:55:19.187Z,129.38
2022-10-06T10:56:20.694Z,123.75
2022-10-06T10:57:20.070Z,112.50
2022-10-06T10:58:20.663Z,112.50
2022-10-06T10:59:20.712Z,112.50
2022-10-06T11:00:20.721Z,146.25
2022-10-06T11:01:20.733Z,106.88
2022-10-06T11:02:20.797Z,101.25
2022-10-06T11:03:20.694Z,106.88
2022-10-06T11:04:20.688Z,112.50
2022-10-06T11:05:23.091Z,163.13
2022-10-06T11:07:20.677Z,225.00
2022-10-06T11:08:20.696Z,225.00
2022-10-06T11:09:20.659Z,230.63
2022-10-06T11:11:20.699Z,236.25
2022-10-06T11:12:19.088Z,236.25
2022-10-06T11:13:20.931Z,241.88
2022-10-06T11:14:28.455Z,247.50
2022-10-06T11:15:25.293Z,241.88
2022-10-06T11:16:19.688Z,247.50
2022-10-06T11:17:20.815Z,253.13
2022-10-06T11:18:21.574Z,258.75
2022-10-06T11:19:20.678Z,270.00
2022-10-06T11:20:19.267Z,275.63
2022-10-06T11:21:20.932Z,275.63
2022-10-06T11:22:19.791Z,106.88
2022-10-06T11:23:24.847Z,286.88
2022-10-06T11:24:20.610Z,286.88
2022-10-06T11:25:20.477Z,112.50
2022-10-06T11:26:19.774Z,303.75
2022-10-06T11:27:19.390Z,309.38
2022-10-06T11:28:26.044Z,303.75
2022-10-06T11:29:22.321Z,309.38
2022-10-06T11:30:19.990Z,191.25
2022-10-06T11:31:22.698Z,90.00
2022-10-06T11:32:20.146Z,315.00
2022-10-06T11:33:20.440Z,315.00
2022-10-06T11:34:19.891Z,320.63
2022-10-06T11:35:20.311Z,326.25
2022-10-06T11:36:27.959Z,331.88
2022-10-06T11:37:21.645Z,337.50
2022-10-06T11:38:20.825Z,343.13
2022-10-06T11:39:19.207Z,354.38
2022-10-06T11:40:19.213Z,354.38
2022-10-06T11:41:23.130Z,360.00
2022-10-06T11:42:19.247Z,360.00
2022-10-06T11:43:19.274Z,360.00
2022-10-06T11:44:19.204Z,371.25
2022-10-06T11:45:24.153Z,371.25
2022-10-06T11:46:19.234Z,382.50
2022-10-06T11:47:20.801Z,388.13
2022-10-06T11:48:20.227Z,388.13
2022-10-06T11:49:19.176Z,393.75
2022-10-06T11:50:19.174Z,399.38
2022-10-06T11:51:19.176Z,405.00
2022-10-06T11:52:21.163Z,416.25
2022-10-06T11:53:19.392Z,421.88
2022-10-06T11:54:27.659Z,427.50
2022-10-06T11:55:19.585Z,427.50
2022-10-06T11:56:19.198Z,427.50
2022-10-06T11:57:20.650Z,433.13
2022-10-06T11:59:20.729Z,450.00
2022-10-06T12:00:19.215Z,450.00
2022-10-06T12:01:19.240Z,455.63
2022-10-06T12:02:21.026Z,466.88
2022-10-06T12:03:19.445Z,466.88
2022-10-06T12:04:24.814Z,478.13
2022-10-06T12:06:21.240Z,495.00
2022-10-06T12:07:19.375Z,517.50
2022-10-06T12:08:19.274Z,427.50
2022-10-06T12:09:19.416Z,540.00
2022-10-06T12:10:19.270Z,545.63
2022-10-06T12:11:20.934Z,534.38
2022-10-06T12:12:21.280Z,545.63
2022-10-06T12:13:51.332Z,568.13
2022-10-06T12:17:20.011Z,1895.63
2022-10-06T12:18:23.204Z,1344.38
2022-10-06T12:19:21.253Z,281.25
2022-10-06T12:20:27.357Z,1687.50
2022-10-06T12:21:25.764Z,247.50
2022-10-06T12:22:21.252Z,1732.50
2022-10-06T12:23:21.259Z,832.50
2022-10-06T12:24:21.262Z,1816.88
2022-10-06T12:25:21.244Z,1845.00
2022-10-06T12:26:21.313Z,1833.75
2022-10-06T12:27:22.053Z,1845.00
2022-10-06T12:28:19.432Z,1912.50
2022-10-06T12:29:19.359Z,1912.50
2022-10-06T12:30:21.263Z,1980.00
2022-10-06T12:31:21.276Z,2002.50
2022-10-06T12:32:21.270Z,1968.75
2022-10-06T12:33:21.254Z,1946.25
2022-10-06T12:34:21.274Z,1968.75
2022-10-06T12:35:21.257Z,2030.63
2022-10-06T12:36:21.355Z,2036.25
2022-10-06T12:37:19.480Z,1996.88
2022-10-06T12:38:21.279Z,1468.13
2022-10-06T12:39:21.278Z,2070.00
2022-10-06T12:40:21.283Z,2086.88
2022-10-06T12:41:21.263Z,2064.38
2022-10-06T12:42:21.264Z,1035.00
2022-10-06T12:43:21.288Z,2086.88
2022-10-06T12:44:21.302Z,2081.25
2022-10-06T12:45:21.306Z,2086.88
2022-10-06T12:46:21.305Z,2053.13
2022-10-06T12:47:21.345Z,1968.75
2022-10-06T12:48:21.327Z,1963.13
2022-10-06T12:49:21.274Z,2030.63
2022-10-06T12:50:21.479Z,2086.88
2022-10-06T12:51:21.373Z,2036.25
2022-10-06T12:52:21.307Z,2092.50
2022-10-06T12:53:21.309Z,2165.63
2022-10-06T12:54:21.329Z,2148.75
2022-10-06T12:55:21.282Z,2131.88
2022-10-06T12:56:21.317Z,2182.50
2022-10-06T12:57:21.360Z,2182.50
2022-10-06T12:59:19.572Z,2120.63
2022-10-06T13:00:21.393Z,2137.50
2022-10-06T13:01:19.629Z,2075.63
2022-10-06T13:02:21.390Z,2092.50
2022-10-06T13:03:21.316Z,697.50
2022-10-06T13:04:21.302Z,2115.00
2022-10-06T13:05:21.325Z,2205.00
2022-10-06T13:06:21.328Z,2193.75
2022-10-06T13:07:20.631Z,2199.38
2022-10-06T13:08:19.714Z,2137.50
2022-10-06T13:09:19.755Z,2137.50
2022-10-06T13:10:19.676Z,2165.63
2022-10-06T13:11:21.340Z,2182.50
2022-10-06T13:12:19.690Z,2103.75
2022-10-06T13:13:19.659Z,2070.00
2022-10-06T13:14:21.345Z,2131.88
2022-10-06T13:16:19.725Z,2188.13
2022-10-06T13:17:21.311Z,2131.88
2022-10-06T13:18:20.758Z,2148.75
2022-10-06T13:19:21.381Z,2143.13
2022-10-06T13:20:21.340Z,2148.75
2022-10-06T13:21:21.317Z,2188.13
2022-10-06T13:22:21.316Z,2154.38
2022-10-06T13:23:21.337Z,315.00
2022-10-06T13:24:21.349Z,236.25
2022-10-06T13:25:21.320Z,281.25
2022-10-06T13:26:21.320Z,1636.88
2022-10-06T13:27:20.752Z,613.13
2022-10-06T13:28:20.873Z,2148.75
2022-10-06T13:29:20.789Z,270.00
2022-10-06T13:30:20.772Z,500.63
2022-10-06T13:31:20.840Z,382.50
2022-10-06T13:32:20.785Z,191.25
2022-10-06T13:33:20.796Z,264.38
2022-10-06T13:34:21.332Z,2244.38
2022-10-06T13:35:20.809Z,2160.00
2022-10-06T13:36:21.365Z,2154.38
2022-10-06T13:37:20.901Z,2126.25
2022-10-06T13:38:21.374Z,2092.50
2022-10-06T13:39:20.905Z,2109.38
2022-10-06T13:40:21.871Z,2041.88
2022-10-06T13:41:19.851Z,2002.50
2022-10-06T13:42:21.352Z,2053.13
2022-10-06T13:43:21.893Z,2098.13
2022-10-06T13:44:21.850Z,2126.25
2022-10-06T13:45:22.118Z,2165.63
2022-10-06T13:46:23.976Z,2098.13
2022-10-06T13:47:21.906Z,2008.13
2022-10-06T13:48:20.025Z,2019.38
2022-10-06T13:49:21.211Z,2013.75
2022-10-06T13:50:20.300Z,1980.00
2022-10-06T13:51:21.872Z,1963.13
2022-10-06T13:52:21.890Z,1991.25
2022-10-06T13:53:21.874Z,1974.38
2022-10-06T13:54:21.867Z,1963.13
2022-10-06T13:55:21.867Z,1906.88
2022-10-06T13:56:21.912Z,1906.88
2022-10-06T13:57:22.060Z,1884.38
2022-10-06T13:58:21.859Z,1861.88
2022-10-06T13:59:21.914Z,1867.50
2022-10-06T14:00:21.868Z,1833.75
2022-10-06T14:01:23.029Z,1805.63
2022-10-06T14:02:21.925Z,1811.25
2022-10-06T14:03:21.930Z,1833.75
2022-10-06T14:04:21.879Z,1833.75
2022-10-06T14:05:21.879Z,1845.00
2022-10-06T14:06:21.871Z,1839.38
2022-10-06T14:07:21.869Z,1777.50
2022-10-06T14:08:21.884Z,1788.75
2022-10-06T14:09:21.874Z,1749.38
2022-10-06T14:10:21.942Z,1732.50
2022-10-06T14:11:21.939Z,1743.75
2022-10-06T14:12:21.877Z,1704.38
2022-10-06T14:13:21.877Z,1670.63
2022-10-06T14:14:21.914Z,1665.00
2022-10-06T14:15:21.890Z,1670.63
2022-10-06T14:16:22.016Z,1608.75
2022-10-06T14:17:21.881Z,1591.88
2022-10-06T14:18:21.929Z,1603.13
2022-10-06T14:19:21.890Z,1670.63
2022-10-06T14:20:21.899Z,1642.50
2022-10-06T14:21:21.907Z,1535.63
2022-10-06T14:22:21.897Z,1524.38
2022-10-06T14:23:21.893Z,1524.38
2022-10-06T14:24:21.895Z,1530.00
2022-10-06T14:25:21.909Z,1496.25
2022-10-06T14:26:21.907Z,1524.38
2022-10-06T14:27:21.929Z,1524.38
2022-10-06T14:28:21.955Z,1490.63
2022-10-06T14:29:21.911Z,1417.50
2022-10-06T14:30:21.899Z,1417.50
2022-10-06T14:31:22.028Z,1423.13
2022-10-06T14:32:21.902Z,1355.63
2022-10-06T14:33:20.212Z,1316.25
2022-10-06T14:34:21.211Z,1271.25
2022-10-06T14:35:20.222Z,1305.00
2022-10-06T14:36:21.418Z,1299.38
2022-10-06T14:37:21.935Z,1305.00
2022-10-06T14:38:21.253Z,1327.50
2022-10-06T14:39:21.910Z,1321.88
2022-10-06T14:40:21.910Z,1299.38
2022-10-06T14:41:22.915Z,1220.63
2022-10-06T14:42:21.944Z,1181.25
2022-10-06T14:43:21.286Z,1203.75
2022-10-06T14:44:21.285Z,1119.38
2022-10-06T14:45:20.284Z,1029.38
2022-10-06T14:46:20.324Z,939.38
2022-10-06T14:47:21.933Z,922.50
2022-10-06T14:48:20.316Z,916.88
2022-10-06T14:49:20.309Z,916.88
2022-10-06T14:50:21.942Z,984.38
2022-10-06T14:51:20.322Z,973.13
2022-10-06T14:52:21.931Z,798.75
2022-10-06T14:53:21.335Z,360.00
2022-10-06T14:54:21.929Z,163.13
2022-10-06T14:55:21.942Z,151.88
2022-10-06T14:56:20.343Z,146.25
2022-10-06T14:57:21.931Z,140.63
2022-10-06T14:58:20.357Z,135.00
2022-10-06T14:59:22.015Z,129.38
2022-10-06T15:00:21.974Z,123.75
2022-10-06T15:01:21.957Z,123.75
2022-10-06T15:02:20.497Z,118.13
2022-10-06T15:03:22.055Z,112.50
2022-10-06T15:04:20.384Z,112.50
2022-10-06T15:05:20.384Z,106.88
2022-10-06T15:06:21.955Z,106.88
2022-10-06T15:07:20.402Z,101.25
2022-10-06T15:08:21.943Z,101.25
2022-10-06T15:09:21.951Z,101.25
2022-10-06T15:10:21.944Z,95.63
2022-10-06T15:11:21.961Z,95.63
2022-10-06T15:12:21.950Z,95.63
2022-10-06T15:13:21.948Z,90.00
2022-10-06T15:14:21.973Z,90.00
2022-10-06T15:15:21.965Z,90.00
2022-10-06T15:16:21.968Z,84.38
2022-10-06T15:17:21.963Z,78.75
2022-10-06T15:18:21.956Z,84.38
2022-10-06T15:19:21.955Z,84.38
2022-10-06T15:20:21.956Z,78.75
2022-10-06T15:21:21.973Z,78.75
2022-10-06T15:22:20.435Z,78.75
2022-10-06T15:23:21.974Z,78.75
2022-10-06T15:24:20.435Z,73.13
2022-10-06T15:25:20.439Z,73.13
2022-10-06T15:26:22.012Z,73.13
2022-10-06T15:27:24.726Z,73.13
2022-10-06T15:28:23.526Z,67.50
2022-10-06T15:29:20.451Z,67.50
2022-10-06T15:30:20.448Z,67.50
2022-10-06T15:31:20.540Z,67.50
2022-10-06T15:32:21.986Z,67.50
2022-10-06T15:33:22.503Z,67.50
2022-10-06T15:34:20.460Z,67.50
2022-10-06T15:35:20.453Z,67.50
2022-10-06T15:36:20.458Z,73.13
2022-10-06T15:37:22.034Z,67.50
2022-10-06T15:38:21.988Z,67.50
2022-10-06T15:39:20.463Z,61.88
2022-10-06T15:40:21.987Z,61.88
2022-10-06T15:41:21.988Z,61.88
2022-10-06T15:42:21.986Z,61.88
2022-10-06T15:43:22.020Z,61.88
2022-10-06T15:44:21.996Z,61.88
2022-10-06T15:45:21.985Z,56.25
2022-10-06T15:46:22.072Z,50.63
2022-10-06T15:47:22.000Z,50.63
2022-10-06T15:48:21.996Z,45.00
2022-10-06T15:49:21.991Z,45.00
2022-10-06T15:50:21.985Z,45.00
2022-10-06T15:51:21.994Z,45.00
2022-10-06T15:52:22.008Z,45.00
2022-10-06T15:53:21.997Z,45.00
2022-10-06T15:54:22.004Z,45.00
2022-10-06T15:55:21.988Z,39.38
2022-10-06T15:56:21.994Z,39.38
2022-10-06T15:57:22.006Z,39.38
2022-10-06T15:58:22.018Z,39.38
2022-10-06T15:59:22.042Z,39.38
2022-10-06T16:00:22.002Z,39.38
2022-10-06T16:12:31.076Z,28.13
2022-10-06T16:13:31.041Z,28.13
2022-10-06T16:14:30.451Z,28.13
2022-10-06T16:15:31.041Z,28.13
2022-10-06T16:16:31.126Z,22.50
2022-10-06T16:17:31.057Z,22.50
2022-10-06T16:18:31.049Z,22.50
2022-10-06T16:19:31.056Z,22.50
2022-10-06T16:20:31.062Z,22.50
2022-10-06T16:21:31.045Z,22.50
2022-10-06T16:22:31.047Z,22.50
2022-10-06T16:23:29.425Z,16.88
2022-10-06T16:24:29.437Z,16.88
2022-10-06T16:25:30.562Z,16.88
2022-10-06T16:26:29.423Z,16.88
2022-10-06T16:27:33.350Z,16.88
2022-10-06T16:28:29.496Z,16.88
2022-10-06T16:29:31.065Z,16.88
2022-10-06T16:30:30.576Z,11.25
2022-10-06T16:31:29.453Z,11.25
2022-10-06T16:32:29.406Z,11.25
2022-10-06T16:33:30.583Z,11.25
2022-10-06T16:34:29.421Z,11.25
2022-10-06T16:35:29.439Z,11.25
2022-10-06T16:36:29.433Z,11.25
2022-10-06T16:37:29.401Z,11.25
2022-10-06T16:38:30.573Z,11.25
2022-10-06T16:39:29.418Z,5.63
2022-10-06T16:40:29.420Z,5.63
2022-10-06T16:41:29.402Z,5.63
2022-10-06T16:42:29.391Z,5.63
2022-10-06T16:43:31.076Z,5.63
2022-10-06T16:44:31.108Z,5.63
2022-10-06T16:45:31.088Z,5.63
2022-10-06T16:46:31.133Z,5.63
2022-10-06T16:47:31.070Z,5.63
2022-10-06T16:48:31.082Z,5.63
2022-10-06T16:49:29.378Z,0.00
2022-10-06T16:50:50.385Z,0.00
2022-10-06T16:51:31.089Z,0.00
2022-10-06T16:52:31.095Z,0.00
2022-10-06T16:53:31.093Z,0.00
2022-10-06T16:54:31.085Z,0.00
2022-10-06T16:55:31.074Z,0.00
2022-10-06T16:56:31.079Z,0.00
2022-10-06T16:57:31.077Z,0.00
2022-10-06T16:58:31.107Z,0.00
2022-10-06T16:59:31.126Z,0.00
2022-10-06T17:00:31.129Z,0.00
2022-10-06T17:01:31.101Z,0.00
2022-10-06T17:02:31.101Z,0.00
2022-10-06T17:03:31.195Z,0.00
2022-10-06T17:04:31.094Z,0.00
2022-10-06T17:05:31.086Z,0.00
2022-10-06T17:06:31.088Z,0.00
2022-10-06T17:07:31.087Z,0.00
2022-10-06T17:08:31.101Z,0.00
2022-10-06T17:09:31.109Z,0.00
2022-10-06T17:10:31.104Z,0.00
2022-10-06T17:11:29.339Z,0.00
2022-10-06T17:12:29.330Z,0.00
2022-10-06T17:13:29.335Z,0.00
2022-10-06T17:14:30.622Z,0.00
2022-10-06T17:15:33.551Z,0.00